createdAt,value
2019-01-27T00:00:44.997Z,126.97
2019-01-27T00:01:50.185Z,118.75
2019-01-27T00:02:55.024Z,129.42
2019-01-27T00:04:00.053Z,129.07
2019-01-27T00:05:05.475Z,122.02
2019-01-27T00:06:10.617Z,142.95
2019-01-27T00:07:15.492Z,133.75
2019-01-27T00:08:20.441Z,126.92
2019-01-27T00:09:25.588Z,132.40
2019-01-27T00:10:30.584Z,132.37
2019-01-27T00:11:35.682Z,130.35
2019-01-27T00:12:40.656Z,126.42
2019-01-27T00:13:45.648Z,134.78
2019-01-27T00:14:50.708Z,133.43
2019-01-27T00:15:55.723Z,132.25
2019-01-27T00:17:00.649Z,127.17
2019-01-27T00:18:06.072Z,126.55
2019-01-27T00:19:11.161Z,124.72
2019-01-27T00:20:17.004Z,129.47
2019-01-27T00:21:21.754Z,128.62
2019-01-27T00:22:26.504Z,133.43
2019-01-27T00:23:31.617Z,122.02
2019-01-27T00:24:36.590Z,126.10
2019-01-27T00:25:41.507Z,146.95
2019-01-27T00:27:39.881Z,140.85
2019-01-27T00:29:24.260Z,127.65
2019-01-27T00:31:25.924Z,137.85
2019-01-27T00:32:30.851Z,115.17
2019-01-27T00:33:35.755Z,131.63
2019-01-27T00:34:40.761Z,134.03
2019-01-27T00:35:45.552Z,133.93
2019-01-27T00:36:50.375Z,117.25
2019-01-27T00:37:55.455Z,130.57
2019-01-27T00:39:00.492Z,137.95
2019-01-27T00:40:06.572Z,141.60
2019-01-27T00:41:11.517Z,133.45
2019-01-27T00:42:16.691Z,133.55
2019-01-27T00:43:21.784Z,136.30
2019-01-27T00:44:26.735Z,130.45
2019-01-27T00:45:31.601Z,139.15
2019-01-27T00:46:36.532Z,125.62
2019-01-27T00:47:41.427Z,122.22
2019-01-27T00:48:46.459Z,130.85
2019-01-27T00:49:51.472Z,142.32
2019-01-27T00:50:56.469Z,119.82
2019-01-27T00:52:01.636Z,111.97
2019-01-27T00:53:07.278Z,102.32
2019-01-27T00:54:12.269Z,112.55
2019-01-27T00:55:19.324Z,107.03
2019-01-27T00:56:24.365Z,92.30
2019-01-27T00:57:29.357Z,98.60
2019-01-27T00:58:34.403Z,107.07
2019-01-27T00:59:39.173Z,107.65
2019-01-27T01:00:44.250Z,99.87
2019-01-27T01:01:49.093Z,100.40
2019-01-27T01:02:54.122Z,102.67
2019-01-27T01:03:59.224Z,100.53
2019-01-27T01:05:04.403Z,108.63
2019-01-27T01:06:09.440Z,113.42
2019-01-27T01:07:14.447Z,113.15
2019-01-27T01:08:19.308Z,111.35
2019-01-27T01:09:24.189Z,108.12
2019-01-27T01:10:29.144Z,97.88
2019-01-27T01:11:34.028Z,109.03
2019-01-27T01:12:38.819Z,101.25
2019-01-27T01:13:43.588Z,108.47
2019-01-27T01:14:48.356Z,110.15
2019-01-27T01:15:53.375Z,113.05
2019-01-27T01:16:58.305Z,98.55
2019-01-27T01:18:03.096Z,107.90
2019-01-27T01:19:08.115Z,101.27
2019-01-27T01:20:15.700Z,115.40
2019-01-27T01:21:20.713Z,121.80
2019-01-27T01:22:25.764Z,109.65
2019-01-27T01:23:30.620Z,104.67
2019-01-27T01:24:35.422Z,108.10
2019-01-27T01:25:40.319Z,107.52
2019-01-27T01:26:45.364Z,121.90
2019-01-27T01:27:50.812Z,99.17
2019-01-27T01:28:55.896Z,101.55
2019-01-27T01:30:00.756Z,108.83
2019-01-27T01:31:05.937Z,116.22
2019-01-27T01:32:10.911Z,111.22
2019-01-27T01:33:15.668Z,112.08
2019-01-27T01:34:20.433Z,115.25
2019-01-27T01:35:25.423Z,123.30
2019-01-27T01:36:30.377Z,114.17
2019-01-27T01:37:35.128Z,109.87
2019-01-27T01:38:40.034Z,114.60
2019-01-27T01:39:44.889Z,107.97
2019-01-27T01:40:49.908Z,106.58
2019-01-27T01:41:54.804Z,117.93
2019-01-27T01:42:59.958Z,108.45
2019-01-27T01:44:05.012Z,99.37
2019-01-27T01:45:16.911Z,112.08
2019-01-27T01:46:21.685Z,110.05
2019-01-27T01:47:26.600Z,105.27
2019-01-27T01:48:31.359Z,106.30
2019-01-27T01:49:36.208Z,105.55
2019-01-27T01:50:41.060Z,104.40
2019-01-27T01:51:45.909Z,100.75
2019-01-27T01:52:50.999Z,97.62
2019-01-27T01:53:55.920Z,103.20
2019-01-27T01:55:00.744Z,103.02
2019-01-27T01:56:06.333Z,105.45
2019-01-27T01:57:11.111Z,111.57
2019-01-27T01:58:15.964Z,106.78
2019-01-27T01:59:20.966Z,107.92
2019-01-27T02:00:27.012Z,108.27
2019-01-27T02:01:31.972Z,95.75
2019-01-27T02:02:36.963Z,101.55
2019-01-27T02:03:41.905Z,106.00
2019-01-27T02:04:46.756Z,107.05
2019-01-27T02:05:51.707Z,94.50
2019-01-27T02:06:56.568Z,104.60
2019-01-27T02:08:01.416Z,106.83
2019-01-27T02:09:10.868Z,108.03
2019-01-27T02:10:17.655Z,110.50
2019-01-27T02:11:22.612Z,95.90
2019-01-27T02:12:27.408Z,102.10
2019-01-27T02:13:32.172Z,105.07
2019-01-27T02:14:37.004Z,96.87
2019-01-27T02:16:05.128Z,102.00
2019-01-27T02:17:10.141Z,97.65
2019-01-27T02:18:15.111Z,115.97
2019-01-27T02:19:19.872Z,107.15
2019-01-27T02:20:24.731Z,106.52
2019-01-27T02:21:29.651Z,116.40
2019-01-27T02:22:34.655Z,113.22
2019-01-27T02:23:39.864Z,120.08
2019-01-27T02:24:44.755Z,127.12
2019-01-27T02:25:49.742Z,111.55
2019-01-27T02:26:54.716Z,114.72
2019-01-27T02:27:59.624Z,108.55
2019-01-27T02:29:04.944Z,110.50
2019-01-27T02:30:10.528Z,106.22
2019-01-27T02:31:15.361Z,94.83
2019-01-27T02:32:20.101Z,97.47
2019-01-27T02:33:24.830Z,90.42
2019-01-27T02:34:29.699Z,93.85
2019-01-27T02:35:34.701Z,98.50
2019-01-27T02:36:39.552Z,98.55
2019-01-27T02:37:44.409Z,97.42
2019-01-27T02:38:49.253Z,93.47
2019-01-27T02:39:54.018Z,104.75
2019-01-27T02:40:58.980Z,111.60
2019-01-27T02:42:03.966Z,100.92
2019-01-27T02:43:08.885Z,102.30
2019-01-27T02:44:13.615Z,90.00
2019-01-27T02:45:18.509Z,93.05
2019-01-27T02:46:23.357Z,100.40
2019-01-27T02:47:28.219Z,97.08
2019-01-27T02:48:33.028Z,97.97
2019-01-27T02:49:37.905Z,94.37
2019-01-27T02:50:42.756Z,98.37
2019-01-27T02:51:47.622Z,100.42
2019-01-27T02:52:52.396Z,101.18
2019-01-27T02:53:57.261Z,99.45
2019-01-27T02:55:02.126Z,96.97
2019-01-27T02:56:07.200Z,99.25
2019-01-27T02:57:12.288Z,90.60
2019-01-27T02:58:17.220Z,102.32
2019-01-27T02:59:21.992Z,93.50
2019-01-27T03:00:26.844Z,91.87
2019-01-27T03:01:31.720Z,95.72
2019-01-27T03:02:36.621Z,89.97
2019-01-27T03:03:41.358Z,99.35
2019-01-27T03:04:46.230Z,92.47
2019-01-27T03:06:10.068Z,99.25
2019-01-27T03:07:27.990Z,97.50
2019-01-27T03:08:50.897Z,98.07
2019-01-27T03:09:55.623Z,94.75
2019-01-27T03:11:00.504Z,104.38
2019-01-27T03:12:06.528Z,105.20
2019-01-27T03:13:11.436Z,101.80
2019-01-27T03:14:16.928Z,112.22
2019-01-27T03:15:28.516Z,116.55
2019-01-27T03:16:46.432Z,112.42
2019-01-27T03:17:51.398Z,109.65
2019-01-27T03:18:56.310Z,109.30
2019-01-27T03:20:01.077Z,110.83
2019-01-27T03:21:05.960Z,111.70
2019-01-27T03:22:10.804Z,119.55
2019-01-27T03:23:15.683Z,102.42
2019-01-27T03:24:20.642Z,115.42
2019-01-27T03:25:25.381Z,125.90
2019-01-27T03:26:30.229Z,116.10
2019-01-27T03:27:35.195Z,111.22
2019-01-27T03:28:40.202Z,117.08
2019-01-27T03:29:44.988Z,112.83
2019-01-27T03:30:49.860Z,120.20
2019-01-27T03:31:54.809Z,123.45
2019-01-27T03:32:59.702Z,122.22
2019-01-27T03:34:04.855Z,116.90
2019-01-27T03:35:10.299Z,126.80
2019-01-27T03:36:15.184Z,120.87
2019-01-27T03:37:19.993Z,117.87
2019-01-27T03:38:24.782Z,126.62
2019-01-27T03:39:29.728Z,125.70
2019-01-27T03:40:34.691Z,132.45
2019-01-27T03:41:39.650Z,132.57
2019-01-27T03:42:44.609Z,131.67
2019-01-27T03:43:49.456Z,124.10
2019-01-27T03:44:54.320Z,135.70
2019-01-27T03:45:59.168Z,132.90
2019-01-27T03:47:04.240Z,135.40
2019-01-27T03:48:09.257Z,128.10
2019-01-27T03:49:14.168Z,132.20
2019-01-27T03:50:19.019Z,144.22
2019-01-27T03:51:23.879Z,131.85
2019-01-27T03:52:28.748Z,128.95
2019-01-27T03:53:33.531Z,133.00
2019-01-27T03:54:38.261Z,138.77
2019-01-27T03:55:43.104Z,127.72
2019-01-27T03:56:47.982Z,135.05
2019-01-27T03:57:52.870Z,126.35
2019-01-27T03:58:57.766Z,125.35
2019-01-27T04:00:02.521Z,130.52
2019-01-27T04:01:07.695Z,118.67
2019-01-27T04:02:12.473Z,113.25
2019-01-27T04:03:17.356Z,128.95
2019-01-27T04:04:22.227Z,120.42
2019-01-27T04:05:27.268Z,121.77
2019-01-27T04:06:32.194Z,111.95
2019-01-27T04:07:37.005Z,103.95
2019-01-27T04:08:41.837Z,108.10
2019-01-27T04:09:46.675Z,97.22
2019-01-27T04:10:51.593Z,87.92
2019-01-27T04:11:56.363Z,110.08
2019-01-27T04:13:01.392Z,100.75
2019-01-27T04:14:06.564Z,105.40
2019-01-27T04:15:11.750Z,106.10
2019-01-27T04:16:16.735Z,98.17
2019-01-27T04:17:21.476Z,102.70
2019-01-27T04:18:26.390Z,108.25
2019-01-27T04:19:31.120Z,99.87
2019-01-27T04:20:36.096Z,102.55
2019-01-27T04:21:40.991Z,98.35
2019-01-27T04:22:45.757Z,97.17
2019-01-27T04:23:50.524Z,109.35
2019-01-27T04:24:55.417Z,107.45
2019-01-27T04:26:00.262Z,101.47
2019-01-27T04:27:05.161Z,120.53
2019-01-27T04:28:11.486Z,100.22
2019-01-27T04:29:16.365Z,106.15
2019-01-27T04:30:31.829Z,108.32
2019-01-27T04:31:36.653Z,113.65
2019-01-27T04:32:41.646Z,104.90
2019-01-27T04:33:46.506Z,110.97
2019-01-27T04:34:51.284Z,110.55
2019-01-27T04:35:56.128Z,113.17
2019-01-27T04:37:01.004Z,101.42
2019-01-27T04:38:06.085Z,115.75
2019-01-27T04:39:11.767Z,104.95
2019-01-27T04:40:18.839Z,105.35
2019-01-27T04:41:23.608Z,107.00
2019-01-27T04:42:28.484Z,110.80
2019-01-27T04:43:33.374Z,109.42
2019-01-27T04:44:38.224Z,92.35
2019-01-27T04:45:42.972Z,105.47
2019-01-27T04:46:47.824Z,97.33
2019-01-27T04:47:52.703Z,115.80
2019-01-27T04:48:57.575Z,105.25
2019-01-27T04:50:02.347Z,113.05
2019-01-27T04:51:07.297Z,108.52
2019-01-27T04:52:12.177Z,106.67
2019-01-27T04:53:17.048Z,106.60
2019-01-27T04:54:21.809Z,98.25
2019-01-27T04:55:27.054Z,108.17
2019-01-27T04:56:32.128Z,97.35
2019-01-27T04:57:37.004Z,101.33
2019-01-27T04:58:41.771Z,99.05
2019-01-27T04:59:46.615Z,98.70
2019-01-27T05:00:51.484Z,99.60
2019-01-27T05:01:56.351Z,100.62
2019-01-27T05:03:20.061Z,94.70
2019-01-27T05:04:39.177Z,93.47
2019-01-27T05:05:44.032Z,96.45
2019-01-27T05:06:48.769Z,95.87
2019-01-27T05:07:53.600Z,96.97
2019-01-27T05:08:58.511Z,103.70
2019-01-27T05:10:03.339Z,99.07
2019-01-27T05:11:08.383Z,100.12
2019-01-27T05:12:13.238Z,111.70
2019-01-27T05:13:18.160Z,99.52
2019-01-27T05:14:22.911Z,95.92
2019-01-27T05:15:28.352Z,101.12
2019-01-27T05:16:33.228Z,98.37
2019-01-27T05:17:38.112Z,101.15
2019-01-27T05:18:42.870Z,98.60
2019-01-27T05:19:47.766Z,97.10
2019-01-27T05:20:52.620Z,94.58
2019-01-27T05:21:57.446Z,96.10
2019-01-27T05:23:02.196Z,96.63
2019-01-27T05:24:07.151Z,96.57
2019-01-27T05:25:12.472Z,97.22
2019-01-27T05:26:17.436Z,95.45
2019-01-27T05:27:22.192Z,98.65
2019-01-27T05:28:27.075Z,82.50
2019-01-27T05:29:31.936Z,87.50
2019-01-27T05:30:36.949Z,95.75
2019-01-27T05:31:41.830Z,96.82
2019-01-27T05:32:46.868Z,91.78
2019-01-27T05:33:51.604Z,103.70
2019-01-27T05:34:56.553Z,99.00
2019-01-27T05:36:01.420Z,88.95
2019-01-27T05:37:06.357Z,103.25
2019-01-27T05:38:11.158Z,91.15
2019-01-27T05:39:16.261Z,87.92
2019-01-27T05:40:21.363Z,91.40
2019-01-27T05:41:26.395Z,90.10
2019-01-27T05:42:31.132Z,95.40
2019-01-27T05:43:35.967Z,95.05
2019-01-27T05:44:40.927Z,93.30
2019-01-27T05:45:45.808Z,88.22
2019-01-27T05:46:50.539Z,90.92
2019-01-27T05:47:55.421Z,103.83
2019-01-27T05:49:00.284Z,87.50
2019-01-27T05:50:06.332Z,95.53
2019-01-27T05:51:11.222Z,96.30
2019-01-27T05:52:16.105Z,100.87
2019-01-27T05:53:21.117Z,100.02
2019-01-27T05:54:25.928Z,95.45
2019-01-27T05:55:30.820Z,99.28
2019-01-27T05:56:35.888Z,102.50
2019-01-27T05:57:40.715Z,98.85
2019-01-27T05:58:45.617Z,100.33
2019-01-27T05:59:50.561Z,96.12
2019-01-27T06:00:55.460Z,106.78
2019-01-27T06:02:00.383Z,112.45
2019-01-27T06:03:05.220Z,106.67
2019-01-27T06:04:10.097Z,92.75
2019-01-27T06:05:15.004Z,110.65
2019-01-27T06:06:19.948Z,109.67
2019-01-27T06:07:24.912Z,99.28
2019-01-27T06:08:29.859Z,96.08
2019-01-27T06:09:34.755Z,98.25
2019-01-27T06:10:39.608Z,100.38
2019-01-27T06:11:44.485Z,103.97
2019-01-27T06:12:49.397Z,104.85
2019-01-27T06:13:54.283Z,110.17
2019-01-27T06:14:59.126Z,95.87
2019-01-27T06:16:04.231Z,95.62
2019-01-27T06:17:09.094Z,104.15
2019-01-27T06:18:13.917Z,96.67
2019-01-27T06:19:18.829Z,93.72
2019-01-27T06:20:23.920Z,90.05
2019-01-27T06:21:28.706Z,98.92
2019-01-27T06:22:33.597Z,97.17
2019-01-27T06:23:38.450Z,81.90
2019-01-27T06:24:43.465Z,85.60
2019-01-27T06:25:48.235Z,90.70
2019-01-27T06:26:53.305Z,91.67
2019-01-27T06:27:58.219Z,85.42
2019-01-27T06:29:03.308Z,94.15
2019-01-27T06:30:12.373Z,89.90
2019-01-27T06:31:17.348Z,90.90
2019-01-27T06:32:40.876Z,88.35
2019-01-27T06:33:53.396Z,80.30
2019-01-27T06:34:58.347Z,81.95
2019-01-27T06:36:03.360Z,91.45
2019-01-27T06:37:08.404Z,84.35
2019-01-27T06:38:13.408Z,91.87
2019-01-27T06:39:18.251Z,86.47
2019-01-27T06:40:23.092Z,94.83
2019-01-27T06:41:28.168Z,90.72
2019-01-27T06:42:33.073Z,84.83
2019-01-27T06:43:37.845Z,100.15
2019-01-27T06:44:42.740Z,96.92
2019-01-27T06:45:47.627Z,81.40
2019-01-27T06:46:52.570Z,83.05
2019-01-27T06:47:57.372Z,91.75
2019-01-27T06:49:02.236Z,89.00
2019-01-27T06:50:08.452Z,89.65
2019-01-27T06:51:13.368Z,84.70
2019-01-27T06:52:18.120Z,92.10
2019-01-27T06:53:23.068Z,85.97
2019-01-27T06:54:27.925Z,86.28
2019-01-27T06:55:32.951Z,90.40
2019-01-27T06:56:37.762Z,88.90
2019-01-27T06:57:42.890Z,88.17
2019-01-27T06:59:16.065Z,97.88
2019-01-27T07:00:48.284Z,79.55
2019-01-27T07:02:18.268Z,77.10
2019-01-27T07:03:45.800Z,95.67
2019-01-27T07:05:09.807Z,89.42
2019-01-27T07:06:36.340Z,89.55
2019-01-27T07:07:58.892Z,96.35
2019-01-27T07:09:24.189Z,89.07
2019-01-27T07:11:03.399Z,95.85
2019-01-27T07:12:42.558Z,95.65
2019-01-27T07:14:04.786Z,98.42
2019-01-27T07:15:40.086Z,94.90
2019-01-27T07:17:06.619Z,93.72
2019-01-27T07:18:34.491Z,93.05
2019-01-27T07:20:02.593Z,109.25
2019-01-27T07:21:22.321Z,104.12
2019-01-27T07:22:52.124Z,108.32
2019-01-27T07:24:12.863Z,95.40
2019-01-27T07:25:39.427Z,100.97
2019-01-27T07:26:56.657Z,101.58
2019-01-27T07:28:18.525Z,103.07
2019-01-27T07:29:44.308Z,101.25
2019-01-27T07:31:06.360Z,94.77
2019-01-27T07:32:28.197Z,109.72
2019-01-27T07:33:43.076Z,91.80
2019-01-27T07:35:06.758Z,98.72
2019-01-27T07:36:39.462Z,102.27
2019-01-27T07:38:12.007Z,97.08
2019-01-27T07:39:50.831Z,91.55
2019-01-27T07:41:13.231Z,96.50
2019-01-27T07:42:48.912Z,102.60
2019-01-27T07:44:22.936Z,98.95
2019-01-27T07:45:32.809Z,95.65
2019-01-27T07:46:47.292Z,97.60
2019-01-27T07:48:22.888Z,99.42
2019-01-27T07:49:37.134Z,92.62
2019-01-27T07:51:00.802Z,104.40
2019-01-27T07:52:25.276Z,96.70
2019-01-27T07:54:03.954Z,89.75
2019-01-27T07:55:18.938Z,107.52
2019-01-27T07:56:32.299Z,98.37
2019-01-27T07:57:55.953Z,94.15
2019-01-27T07:59:10.015Z,100.53
2019-01-27T08:00:33.510Z,94.47
2019-01-27T08:01:48.822Z,97.17
2019-01-27T08:03:15.091Z,100.45
2019-01-27T08:04:41.773Z,96.12
2019-01-27T08:06:14.219Z,93.95
2019-01-27T08:07:40.518Z,99.80
2019-01-27T08:09:12.934Z,90.05
2019-01-27T08:10:28.640Z,92.95
2019-01-27T08:11:42.358Z,93.03
2019-01-27T08:13:03.789Z,90.32
2019-01-27T08:14:27.446Z,97.95
2019-01-27T08:16:01.983Z,91.12
2019-01-27T08:17:28.273Z,101.95
2019-01-27T08:19:07.192Z,92.72
2019-01-27T08:20:30.143Z,91.57
2019-01-27T08:21:59.491Z,89.87
2019-01-27T08:23:26.148Z,93.72
2019-01-27T08:24:52.701Z,98.70
2019-01-27T08:26:14.301Z,94.25
2019-01-27T08:27:37.972Z,91.32
2019-01-27T08:28:57.628Z,90.62
2019-01-27T08:30:24.183Z,101.65
2019-01-27T08:31:56.907Z,91.50
2019-01-27T08:33:11.335Z,91.50
2019-01-27T08:34:38.062Z,96.70
2019-01-27T08:35:55.796Z,95.22
2019-01-27T08:37:25.100Z,90.40
2019-01-27T08:38:38.870Z,86.67
2019-01-27T08:40:11.753Z,95.10
2019-01-27T08:41:47.475Z,88.27
2019-01-27T08:42:58.161Z,94.60
2019-01-27T08:44:21.876Z,91.37
2019-01-27T08:45:41.757Z,86.45
2019-01-27T08:46:53.592Z,96.47
2019-01-27T08:47:58.489Z,86.47
2019-01-27T08:49:03.337Z,93.27
2019-01-27T08:50:12.271Z,82.65
2019-01-27T08:51:17.084Z,91.60
2019-01-27T08:52:21.904Z,91.67
2019-01-27T08:53:26.782Z,89.07
2019-01-27T08:54:31.530Z,91.30
2019-01-27T08:55:36.325Z,90.30
2019-01-27T08:56:41.154Z,92.15
2019-01-27T08:57:45.967Z,93.00
2019-01-27T08:58:50.697Z,88.82
2019-01-27T08:59:55.587Z,87.95
2019-01-27T09:01:09.803Z,95.53
2019-01-27T09:02:33.528Z,88.75
2019-01-27T09:04:00.221Z,98.15
2019-01-27T09:05:13.459Z,91.08
2019-01-27T09:06:35.947Z,89.85
2019-01-27T09:07:58.206Z,90.75
2019-01-27T09:09:30.665Z,95.95
2019-01-27T09:10:53.659Z,95.20
2019-01-27T09:12:26.197Z,95.62
2019-01-27T09:13:39.186Z,85.00
2019-01-27T09:15:06.975Z,85.57
2019-01-27T09:16:29.319Z,86.90
2019-01-27T09:17:53.102Z,87.20
2019-01-27T09:19:24.891Z,93.30
2019-01-27T09:20:39.129Z,95.62
2019-01-27T09:21:58.877Z,86.92
2019-01-27T09:23:25.342Z,90.12
2019-01-27T09:25:01.261Z,92.22
2019-01-27T09:26:40.124Z,92.25
2019-01-27T09:28:06.838Z,87.15
2019-01-27T09:29:15.478Z,79.42
2019-01-27T09:30:42.061Z,90.80
2019-01-27T09:32:20.954Z,87.42
2019-01-27T09:33:37.567Z,92.40
2019-01-27T09:35:03.786Z,90.10
2019-01-27T09:36:20.605Z,84.10
2019-01-27T09:37:41.976Z,90.67
2019-01-27T09:39:04.528Z,88.35
2019-01-27T09:40:33.106Z,82.57
2019-01-27T09:42:02.569Z,81.67
2019-01-27T09:43:24.580Z,75.80
2019-01-27T09:44:54.523Z,86.53
2019-01-27T09:46:11.209Z,90.45
2019-01-27T09:47:37.903Z,82.62
2019-01-27T09:49:01.576Z,79.25
2019-01-27T09:50:20.672Z,76.80
2019-01-27T09:51:38.731Z,88.22
2019-01-27T09:53:06.400Z,82.70
2019-01-27T09:54:30.024Z,84.40
2019-01-27T09:55:53.692Z,87.30
2019-01-27T09:57:26.085Z,80.20
2019-01-27T09:58:50.231Z,77.12
2019-01-27T10:00:08.793Z,76.00
2019-01-27T10:01:32.567Z,74.97
2019-01-27T10:03:11.316Z,82.33
2019-01-27T10:04:38.207Z,78.12
2019-01-27T10:06:04.622Z,85.15
2019-01-27T10:07:37.326Z,88.50
2019-01-27T10:08:57.063Z,85.70
2019-01-27T10:10:21.926Z,82.12
2019-01-27T10:11:37.034Z,80.70
2019-01-27T10:12:48.227Z,73.92
2019-01-27T10:14:10.451Z,87.50
2019-01-27T10:15:41.220Z,82.20
2019-01-27T10:16:56.757Z,77.15
2019-01-27T10:18:09.888Z,78.55
2019-01-27T10:19:32.414Z,85.60
2019-01-27T10:21:12.475Z,82.90
2019-01-27T10:22:26.333Z,83.22
2019-01-27T10:23:41.438Z,79.37
2019-01-27T10:25:15.970Z,88.65
2019-01-27T10:26:27.082Z,91.90
2019-01-27T10:27:39.493Z,96.72
2019-01-27T10:29:03.414Z,82.35
2019-01-27T10:30:20.969Z,81.12
2019-01-27T10:31:43.608Z,94.15
2019-01-27T10:33:06.181Z,89.30
2019-01-27T10:34:25.647Z,91.78
2019-01-27T10:35:48.280Z,85.62
2019-01-27T10:37:01.326Z,81.97
2019-01-27T10:38:34.492Z,91.08
2019-01-27T10:39:57.736Z,84.28
2019-01-27T10:41:08.570Z,89.45
2019-01-27T10:42:34.955Z,89.47
2019-01-27T10:43:50.790Z,96.72
2019-01-27T10:45:20.379Z,87.37
2019-01-27T10:46:35.518Z,91.17
2019-01-27T10:47:59.373Z,89.15
2019-01-27T10:49:29.268Z,95.92
2019-01-27T10:50:48.582Z,93.40
2019-01-27T10:52:01.226Z,93.65
2019-01-27T10:53:21.231Z,88.55
2019-01-27T10:54:45.040Z,90.30
2019-01-27T10:56:17.769Z,82.05
2019-01-27T10:57:33.233Z,84.20
2019-01-27T10:58:57.007Z,84.80
2019-01-27T11:00:20.810Z,86.20
2019-01-27T11:01:44.707Z,90.72
2019-01-27T11:02:59.559Z,90.07
2019-01-27T11:04:14.762Z,95.80
2019-01-27T11:05:45.897Z,91.90
2019-01-27T11:07:07.086Z,82.72
2019-01-27T11:08:29.768Z,88.25
2019-01-27T11:09:57.339Z,88.00
2019-01-27T11:11:21.882Z,85.42
2019-01-27T11:13:03.812Z,89.40
2019-01-27T11:14:27.289Z,111.10
2019-01-27T11:15:53.882Z,107.95
2019-01-27T11:17:23.648Z,105.78
2019-01-27T11:19:00.623Z,154.57
2019-01-27T11:20:26.231Z,132.63
2019-01-27T11:21:59.093Z,278.77
2019-01-27T11:23:29.008Z,387.45
2019-01-27T11:24:44.342Z,109.87
2019-01-27T11:26:23.011Z,184.32
2019-01-27T11:27:47.660Z,121.53
2019-01-27T11:29:09.834Z,299.55
2019-01-27T11:30:29.898Z,603.38
2019-01-27T11:31:53.869Z,259.90
2019-01-27T11:33:16.266Z,411.12
2019-01-27T11:34:31.089Z,372.63
2019-01-27T11:36:13.307Z,106.05
2019-01-27T11:37:26.783Z,141.70
2019-01-27T11:38:49.088Z,350.45
2019-01-27T11:40:15.553Z,250.47
2019-01-27T11:41:37.721Z,261.10
2019-01-27T11:42:56.685Z,206.43
2019-01-27T11:44:38.917Z,183.30
2019-01-27T11:45:50.752Z,124.50
2019-01-27T11:47:09.574Z,236.03
2019-01-27T11:48:33.491Z,222.60
2019-01-27T11:50:09.081Z,220.93
2019-01-27T11:51:41.689Z,235.38
2019-01-27T11:52:53.734Z,120.55
2019-01-27T11:53:58.697Z,232.43
2019-01-27T11:55:03.736Z,139.68
2019-01-27T11:56:08.813Z,113.28
2019-01-27T11:57:14.028Z,152.17
2019-01-27T11:58:18.883Z,127.02
2019-01-27T11:59:23.833Z,104.87
2019-01-27T12:00:34.756Z,130.80
2019-01-27T12:01:39.766Z,127.02
2019-01-27T12:02:46.674Z,110.68
2019-01-27T12:03:51.374Z,131.35
2019-01-27T12:04:56.444Z,117.77
2019-01-27T12:06:01.719Z,112.65
2019-01-27T12:07:06.637Z,119.70
2019-01-27T12:08:22.807Z,106.87
2019-01-27T12:10:30.210Z,103.83
2019-01-27T12:11:35.144Z,108.83
2019-01-27T12:12:40.173Z,107.22
2019-01-27T12:13:45.195Z,114.67
2019-01-27T12:15:12.114Z,111.35
2019-01-27T12:16:17.214Z,111.95
2019-01-27T12:17:22.156Z,118.72
2019-01-27T12:18:27.112Z,118.72
2019-01-27T12:19:32.184Z,123.22
2019-01-27T12:20:37.192Z,110.92
2019-01-27T12:21:42.436Z,115.00
2019-01-27T12:22:47.493Z,108.27
2019-01-27T12:23:52.392Z,108.47
2019-01-27T12:24:57.309Z,111.08
2019-01-27T12:26:02.092Z,114.47
2019-01-27T12:27:07.355Z,117.97
2019-01-27T12:28:12.168Z,112.25
2019-01-27T12:29:17.144Z,115.62
2019-01-27T12:30:22.319Z,112.03
2019-01-27T12:31:27.327Z,111.22
2019-01-27T12:32:32.393Z,109.70
2019-01-27T12:33:37.451Z,117.80
2019-01-27T12:34:42.280Z,118.65
2019-01-27T12:35:47.319Z,118.42
2019-01-27T12:36:52.162Z,124.18
2019-01-27T12:37:57.172Z,114.75
2019-01-27T12:39:02.074Z,117.72
2019-01-27T12:40:09.893Z,118.67
2019-01-27T12:41:14.836Z,115.60
2019-01-27T12:42:19.810Z,113.00
2019-01-27T12:43:24.785Z,117.35
2019-01-27T12:44:29.684Z,111.62
2019-01-27T12:45:35.043Z,120.70
2019-01-27T12:46:40.014Z,120.50
2019-01-27T12:47:45.172Z,110.32
2019-01-27T12:48:50.093Z,108.97
2019-01-27T12:49:55.224Z,110.12
2019-01-27T12:51:00.480Z,96.45
2019-01-27T12:52:05.520Z,111.55
2019-01-27T12:53:13.688Z,111.12
2019-01-27T12:54:18.525Z,110.05
2019-01-27T12:55:23.516Z,113.22
2019-01-27T12:56:28.656Z,117.00
2019-01-27T12:57:33.619Z,118.85
2019-01-27T12:58:38.531Z,111.85
2019-01-27T12:59:43.568Z,103.55
2019-01-27T13:00:52.203Z,103.95
2019-01-27T13:01:57.167Z,112.52
2019-01-27T13:03:03.691Z,112.22
2019-01-27T13:04:08.554Z,102.22
2019-01-27T13:05:13.995Z,111.77
2019-01-27T13:06:18.965Z,107.63
2019-01-27T13:07:23.946Z,109.95
2019-01-27T13:08:29.034Z,112.60
2019-01-27T13:09:34.034Z,104.05
2019-01-27T13:10:38.959Z,113.62
2019-01-27T13:11:43.928Z,108.47
2019-01-27T13:12:49.005Z,109.05
2019-01-27T13:13:54.088Z,109.97
2019-01-27T13:14:58.918Z,107.40
2019-01-27T13:16:04.191Z,108.12
2019-01-27T13:17:11.468Z,105.55
2019-01-27T13:18:16.416Z,105.72
2019-01-27T13:19:21.357Z,107.00
2019-01-27T13:20:26.558Z,105.17
2019-01-27T13:21:34.975Z,110.17
2019-01-27T13:22:40.081Z,112.65
2019-01-27T13:23:45.163Z,112.97
2019-01-27T13:24:50.341Z,121.72
2019-01-27T13:25:58.839Z,116.00
2019-01-27T13:27:03.799Z,112.65
2019-01-27T13:28:09.531Z,119.97
2019-01-27T13:29:14.611Z,114.67
2019-01-27T13:30:21.226Z,116.40
2019-01-27T13:31:26.103Z,107.52
2019-01-27T13:32:31.174Z,119.62
2019-01-27T13:33:36.081Z,116.57
2019-01-27T13:34:40.916Z,110.03
2019-01-27T13:35:45.912Z,120.72
2019-01-27T13:36:50.720Z,124.27
2019-01-27T13:37:55.750Z,119.00
2019-01-27T13:39:00.836Z,126.80
2019-01-27T13:40:08.309Z,124.22
2019-01-27T13:41:13.493Z,132.80
2019-01-27T13:42:18.401Z,122.15
2019-01-27T13:43:23.330Z,128.05
2019-01-27T13:44:28.681Z,133.60
2019-01-27T13:45:33.691Z,122.30
2019-01-27T13:46:38.727Z,121.28
2019-01-27T13:47:44.339Z,127.80
2019-01-27T13:48:51.013Z,131.15
2019-01-27T13:49:56.084Z,132.85
2019-01-27T13:51:01.110Z,129.27
2019-01-27T13:52:06.064Z,134.10
2019-01-27T13:53:12.813Z,122.67
2019-01-27T13:54:20.251Z,135.10
2019-01-27T13:55:27.121Z,118.70
2019-01-27T13:56:32.411Z,114.22
2019-01-27T13:57:43.302Z,119.17
2019-01-27T13:58:48.210Z,135.40
2019-01-27T13:59:53.451Z,128.80
2019-01-27T14:00:58.301Z,122.30
2019-01-27T14:02:03.195Z,122.45
2019-01-27T14:03:08.639Z,117.05
2019-01-27T14:04:13.687Z,127.20
2019-01-27T14:05:18.759Z,122.92
2019-01-27T14:06:23.652Z,130.78
2019-01-27T14:07:28.613Z,121.92
2019-01-27T14:08:33.676Z,134.00
2019-01-27T14:09:38.715Z,124.22
2019-01-27T14:10:43.609Z,125.60
2019-01-27T14:11:48.661Z,120.50
2019-01-27T14:12:53.524Z,123.75
2019-01-27T14:13:59.105Z,118.47
2019-01-27T14:15:04.194Z,128.47
2019-01-27T14:16:09.590Z,119.37
2019-01-27T14:17:16.000Z,136.72
2019-01-27T14:18:21.223Z,147.35
2019-01-27T14:19:26.683Z,135.95
2019-01-27T14:20:31.644Z,131.25
2019-01-27T14:21:37.017Z,136.45
2019-01-27T14:22:42.128Z,123.67
2019-01-27T14:23:47.274Z,139.88
2019-01-27T14:24:52.112Z,132.05
2019-01-27T14:25:56.995Z,139.12
2019-01-27T14:27:02.052Z,139.97
2019-01-27T14:28:07.543Z,141.88
2019-01-27T14:29:12.879Z,147.80
2019-01-27T14:30:26.061Z,133.87
2019-01-27T14:31:31.097Z,144.55
2019-01-27T14:32:36.083Z,137.32
2019-01-27T14:33:41.049Z,134.82
2019-01-27T14:34:46.021Z,150.20
2019-01-27T14:35:50.855Z,143.35
2019-01-27T14:36:56.007Z,148.50
2019-01-27T14:38:00.963Z,156.07
2019-01-27T14:39:08.784Z,145.50
2019-01-27T14:40:16.688Z,154.12
2019-01-27T14:41:21.856Z,145.68
2019-01-27T14:42:26.935Z,133.67
2019-01-27T14:43:32.072Z,132.50
2019-01-27T14:44:37.093Z,147.37
2019-01-27T14:45:42.110Z,148.82
2019-01-27T14:46:47.356Z,144.32
2019-01-27T14:47:52.468Z,142.98
2019-01-27T14:48:57.606Z,145.05
2019-01-27T14:50:02.531Z,144.40
2019-01-27T14:51:07.588Z,150.68
2019-01-27T14:52:12.690Z,138.85
2019-01-27T14:53:20.786Z,147.40
2019-01-27T14:54:25.697Z,148.43